Bielsa, Aragón

latitud= 42° 37' 48''N |longitud= 000° 13' 29''E
990 metros sobre el nivel del mar | datos mensuales

Fecha, hora, temperatura, viento dirección y velocidad, humedad y presión.

  • 25-09-2017 00:00:00 | 11.40°C | Norte |2.00 km/h | 93.00% | 0.00 hPa
  • 24-09-2017 23:00:00 | 12.10°C | Noroeste |2.00 km/h | 92.00% | 0.00 hPa
  • 24-09-2017 22:00:00 | 12.90°C | Oeste |2.00 km/h | 88.00% | 0.00 hPa
  • 24-09-2017 21:00:00 | 13.80°C | Noroeste |3.00 km/h | 87.00% | 0.00 hPa
  • 24-09-2017 20:00:00 | 15.30°C | Norte |3.00 km/h | 82.00% | 0.00 hPa
  • 24-09-2017 19:00:00 | 17.00°C | Noroeste |2.00 km/h | 76.00% | 0.00 hPa
  • 24-09-2017 18:00:00 | 19.10°C | Noroeste |3.00 km/h | 66.00% | 0.00 hPa
  • 24-09-2017 17:00:00 | 0.00°C | 0 |0.00 km/h | 0.00% | 0.00 hPa
  • 24-09-2017 16:00:00 | 25.70°C | Sudeste |6.00 km/h | 34.00% | 0.00 hPa
  • 24-09-2017 15:00:00 | 25.10°C | Sudeste |6.00 km/h | 34.00% | 0.00 hPa
  • 24-09-2017 14:00:00 | 24.50°C | Sudeste |8.00 km/h | 34.00% | 0.00 hPa
  • 24-09-2017 13:00:00 | 23.10°C | Sudeste |5.00 km/h | 35.00% | 0.00 hPa
  • 24-09-2017 12:00:00 | 19.50°C | Sudeste |3.00 km/h | 60.00% | 0.00 hPa
  • 24-09-2017 11:00:00 | 13.30°C | Calma |0.00 km/h | 83.00% | 0.00 hPa
  • 24-09-2017 10:00:00 | 9.50°C | Calma |0.00 km/h | 98.00% | 0.00 hPa
  • 24-09-2017 09:00:00 | 7.20°C | Calma |0.00 km/h | 98.00% | 0.00 hPa
  • 24-09-2017 08:00:00 | 6.80°C | Calma |0.00 km/h | 97.00% | 0.00 hPa
  • 24-09-2017 07:00:00 | 7.20°C | Noroeste |3.00 km/h | 97.00% | 0.00 hPa
  • 24-09-2017 06:00:00 | 7.40°C | Calma |0.00 km/h | 97.00% | 0.00 hPa
  • 24-09-2017 05:00:00 | 7.70°C | Oeste |2.00 km/h | 97.00% | 0.00 hPa
  • 24-09-2017 04:00:00 | 8.20°C | Noroeste |2.00 km/h | 97.00% | 0.00 hPa
  • 24-09-2017 03:00:00 | 8.70°C | Oeste |2.00 km/h | 97.00% | 0.00 hPa
  • 24-09-2017 02:00:00 | 9.00°C | Calma |0.00 km/h | 97.00% | 0.00 hPa
  • 24-09-2017 01:00:00 | 9.40°C | Calma |0.00 km/h | 96.00% | 0.00 hPa